Terminal Aerodrome Forecast
Issued by NWS

Home | Current Version | Previous Version | Text Only | Print | Product List | Glossary On
Versions: 1 2 3 4 5 6 7 8 9 10 11 12 13 14 15 16 17 18 19 20 21 22 23 24 25 26
000
FTUS46 KPQR 291733
TAFONP
TAF
KONP 291733Z 2918/3018 21008KT P6SM OVC010
     FM292200 19010KT 6SM BR OVC020
     FM300300 20007KT 3SM -DZ BR OVC015=

USA.gov is the U.S. government's official web portal to all federal, state and local government web resources and services.